PWSweather.com
Personal Weather Stations
Station Observations
KUNGSHAMN
Vaejern, KungshamnSE 45643

VaejernKungshamnSE 45643

Lat: 58.376743, Lon: 11.258999

Elevation: 72

Station Type: Vantagepro2

http://damgaard.eu/vs

Latest ConditionsUpdated 9:20:05 PM GMT+01:01 Monday, May 21, 2018
Currently Today's Max Today's Min Today's Average
Temperature 59.9°F15.5°C 64.6°F18.1°C 54.5°F12.5°C 60.3°F15.7°C
Dew Point 48.9°F9.4°C 57.5°F14.2°C 40.0°F4.4°C 50.4°F10.2°C
Winds 2.0 mph S3.2 kmh S 15.0 mph S24.1 kmh S - 6.6 mph 10.6 kmh
Wind Gusts 3.0 mph4.8 kmh 19.0 mph30.6 kmh - -
Humidity 67% 89% 41% 71%
Pressure 24.32 in823.6 mb 24.47 in828.6 mb 24.02 in813.4 mb -
Hour Temp Dew Point Humidity Winds Wind Gusts Pressure Precip Precip Rate Daily Precip Total
09:20 PM 59.9°F15.5°C 48.9°F9.4°C 67% 2.0 mph S3.2 kmh S 3.0 mph4.8 kmh 24.32 in823.6 mb 0.00 in0.0 mm 0.00 in0.0 mm 0.00 in0.0 mm
09:15 PM 60.1°F15.6°C 49.1°F9.5°C 67% 1.0 mph S1.6 kmh S 3.0 mph4.8 kmh 24.32 in823.6 mb 0.00 in0.0 mm 0.00 in0.0 mm 0.00 in0.0 mm
09:10 PM 60.3°F15.7°C 48.4°F9.1°C 65% 1.0 mph SSW1.6 kmh SSW 3.0 mph4.8 kmh 24.32 in823.6 mb 0.00 in0.0 mm 0.00 in0.0 mm 0.00 in0.0 mm
09:05 PM 60.5°F15.8°C 48.2°F9.0°C 64% Calm Calm 1.0 mph1.6 kmh 24.32 in823.6 mb 0.00 in0.0 mm 0.00 in0.0 mm 0.00 in0.0 mm
09:00 PM 60.6°F15.9°C 47.9°F8.8°C 63% 1.0 mph SSW1.6 kmh SSW 2.0 mph3.2 kmh 24.32 in823.6 mb 0.00 in0.0 mm 0.00 in0.0 mm 0.00 in0.0 mm
08:55 PM 60.6°F15.9°C 47.9°F8.8°C 63% 1.0 mph SSW1.6 kmh SSW 2.0 mph3.2 kmh 24.32 in823.6 mb 0.00 in0.0 mm 0.00 in0.0 mm 0.00 in0.0 mm
08:50 PM 60.7°F15.9°C 48.4°F9.1°C 64% 1.0 mph SSW1.6 kmh SSW 2.0 mph3.2 kmh 24.32 in823.6 mb 0.00 in0.0 mm 0.00 in0.0 mm 0.00 in0.0 mm
08:45 PM 60.8°F16.0°C 48.5°F9.2°C 64% 1.0 mph SSW1.6 kmh SSW 2.0 mph3.2 kmh 24.31 in823.2 mb 0.00 in0.0 mm 0.00 in0.0 mm 0.00 in0.0 mm
08:40 PM 60.9°F16.1°C 48.6°F9.2°C 64% 2.0 mph SSW3.2 kmh SSW 2.0 mph3.2 kmh 24.32 in823.6 mb 0.00 in0.0 mm 0.00 in0.0 mm 0.00 in0.0 mm
08:35 PM 61.0°F16.1°C 48.3°F9.1°C 63% 1.0 mph SSW1.6 kmh SSW 2.0 mph3.2 kmh 24.32 in823.6 mb 0.00 in0.0 mm 0.00 in0.0 mm 0.00 in0.0 mm
08:30 PM 61.0°F16.1°C 47.8°F8.8°C 62% Calm Calm -- 24.32 in823.6 mb 0.00 in0.0 mm 0.00 in0.0 mm 0.00 in0.0 mm
08:25 PM 61.1°F16.2°C 47.9°F8.8°C 62% Calm Calm 1.0 mph1.6 kmh 24.32 in823.6 mb 0.00 in0.0 mm 0.00 in0.0 mm 0.00 in0.0 mm
08:20 PM 61.2°F16.2°C 48.0°F8.9°C 62% Calm Calm -- 24.32 in823.6 mb 0.00 in0.0 mm 0.00 in0.0 mm 0.00 in0.0 mm
08:15 PM 61.3°F16.3°C 48.1°F8.9°C 62% Calm Calm -- 24.32 in823.6 mb 0.00 in0.0 mm 0.00 in0.0 mm 0.00 in0.0 mm
08:10 PM 61.3°F16.3°C 48.1°F8.9°C 62% Calm Calm 1.0 mph1.6 kmh 24.32 in823.6 mb 0.00 in0.0 mm 0.00 in0.0 mm 0.00 in0.0 mm
08:05 PM 61.4°F16.3°C 48.6°F9.2°C 63% Calm Calm 2.0 mph3.2 kmh 24.32 in823.6 mb 0.00 in0.0 mm 0.00 in0.0 mm 0.00 in0.0 mm
08:00 PM 61.4°F16.3°C 48.6°F9.2°C 63% 2.0 mph SSW3.2 kmh SSW 3.0 mph4.8 kmh 24.32 in823.6 mb 0.00 in0.0 mm 0.00 in0.0 mm 0.00 in0.0 mm
07:55 PM 61.5°F16.4°C 49.2°F9.6°C 64% 1.0 mph SSW1.6 kmh SSW 1.0 mph1.6 kmh 24.32 in823.6 mb 0.00 in0.0 mm 0.00 in0.0 mm 0.00 in0.0 mm
07:50 PM 61.5°F16.4°C 49.2°F9.6°C 64% 1.0 mph SSW1.6 kmh SSW 2.0 mph3.2 kmh 24.32 in823.6 mb 0.00 in0.0 mm 0.00 in0.0 mm 0.00 in0.0 mm
07:45 PM 61.5°F16.4°C 49.2°F9.6°C 64% 1.0 mph SSW1.6 kmh SSW 3.0 mph4.8 kmh 24.32 in823.6 mb 0.00 in0.0 mm 0.00 in0.0 mm 0.00 in0.0 mm
07:40 PM 61.6°F16.4°C 48.8°F9.3°C 63% 2.0 mph SSW3.2 kmh SSW 4.0 mph6.4 kmh 24.31 in823.2 mb 0.00 in0.0 mm 0.00 in0.0 mm 0.00 in0.0 mm
07:35 PM 61.7°F16.5°C 48.9°F9.4°C 63% Calm Calm 4.0 mph6.4 kmh 24.32 in823.6 mb 0.00 in0.0 mm 0.00 in0.0 mm 0.00 in0.0 mm
07:30 PM 61.7°F16.5°C 48.5°F9.2°C 62% 1.0 mph SSW1.6 kmh SSW 5.0 mph8.0 kmh 24.35 in824.6 mb 0.00 in0.0 mm 0.00 in0.0 mm 0.00 in0.0 mm
07:25 PM 61.9°F16.6°C 48.2°F9.0°C 61% 4.0 mph SSW6.4 kmh SSW 5.0 mph8.0 kmh 24.33 in823.9 mb 0.00 in0.0 mm 0.00 in0.0 mm 0.00 in0.0 mm
07:20 PM 62.0°F16.7°C 47.9°F8.8°C 60% 4.0 mph SW6.4 kmh SW 4.0 mph6.4 kmh 24.33 in823.9 mb 0.00 in0.0 mm 0.00 in0.0 mm 0.00 in0.0 mm
07:15 PM 62.1°F16.7°C 48.4°F9.1°C 61% 1.0 mph SW1.6 kmh SW 2.0 mph3.2 kmh 24.26 in821.5 mb 0.00 in0.0 mm 0.00 in0.0 mm 0.00 in0.0 mm
07:10 PM 62.2°F16.8°C 48.5°F9.2°C 61% 1.0 mph S1.6 kmh S 3.0 mph4.8 kmh 24.28 in822.2 mb 0.00 in0.0 mm 0.00 in0.0 mm 0.00 in0.0 mm
07:05 PM 62.2°F16.8°C 47.6°F8.7°C 59% 1.0 mph S1.6 kmh S 4.0 mph6.4 kmh 24.26 in821.5 mb 0.00 in0.0 mm 0.00 in0.0 mm 0.00 in0.0 mm
07:00 PM 62.2°F16.8°C 47.6°F8.7°C 59% 3.0 mph S4.8 kmh S 5.0 mph8.0 kmh 24.22 in820.2 mb 0.00 in0.0 mm 0.00 in0.0 mm 0.00 in0.0 mm
06:55 PM 62.3°F16.8°C 47.3°F8.5°C 58% 3.0 mph S4.8 kmh S 5.0 mph8.0 kmh 24.22 in820.2 mb 0.00 in0.0 mm 0.00 in0.0 mm 0.00 in0.0 mm
06:50 PM 62.3°F16.8°C 47.3°F8.5°C 58% 1.0 mph SSE1.6 kmh SSE 6.0 mph9.7 kmh 24.22 in820.2 mb 0.00 in0.0 mm 0.00 in0.0 mm 0.00 in0.0 mm
06:45 PM 62.3°F16.8°C 47.3°F8.5°C 58% 4.0 mph S6.4 kmh S 6.0 mph9.7 kmh 24.18 in818.8 mb 0.00 in0.0 mm 0.00 in0.0 mm 0.00 in0.0 mm
06:40 PM 62.3°F16.8°C 46.3°F7.9°C 56% 4.0 mph S6.4 kmh S 6.0 mph9.7 kmh 24.18 in818.8 mb 0.00 in0.0 mm 0.00 in0.0 mm 0.00 in0.0 mm
06:35 PM 62.5°F16.9°C 46.5°F8.1°C 56% 4.0 mph S6.4 kmh S 6.0 mph9.7 kmh 24.18 in818.8 mb 0.00 in0.0 mm 0.00 in0.0 mm 0.00 in0.0 mm
06:30 PM 62.6°F17.0°C 47.1°F8.4°C 57% 1.0 mph S1.6 kmh S 6.0 mph9.7 kmh 24.18 in818.8 mb 0.00 in0.0 mm 0.00 in0.0 mm 0.00 in0.0 mm
06:25 PM 62.6°F17.0°C 47.1°F8.4°C 57% 5.0 mph SSE8.0 kmh SSE 6.0 mph9.7 kmh 24.18 in818.8 mb 0.00 in0.0 mm 0.00 in0.0 mm 0.00 in0.0 mm
06:20 PM 62.6°F17.0°C 46.6°F8.1°C 56% 5.0 mph S8.0 kmh S 7.0 mph11.3 kmh 24.18 in818.8 mb 0.00 in0.0 mm 0.00 in0.0 mm 0.00 in0.0 mm
06:15 PM 62.7°F17.1°C 46.2°F7.9°C 55% 7.0 mph S11.3 kmh S 9.0 mph14.5 kmh 24.18 in818.8 mb 0.00 in0.0 mm 0.00 in0.0 mm 0.00 in0.0 mm
06:10 PM 62.9°F17.2°C 46.4°F8.0°C 55% 1.0 mph SSE1.6 kmh SSE 10.0 mph16.1 kmh 24.18 in818.8 mb 0.00 in0.0 mm 0.00 in0.0 mm 0.00 in0.0 mm
06:05 PM 63.0°F17.2°C 46.5°F8.1°C 55% 6.0 mph S9.7 kmh S 7.0 mph11.3 kmh 24.18 in818.8 mb 0.00 in0.0 mm 0.00 in0.0 mm 0.00 in0.0 mm
06:00 PM 63.0°F17.2°C 46.0°F7.8°C 54% 4.0 mph SSE6.4 kmh SSE 7.0 mph11.3 kmh 24.19 in819.2 mb 0.00 in0.0 mm 0.00 in0.0 mm 0.00 in0.0 mm
05:55 PM 63.1°F17.3°C 45.6°F7.6°C 53% 6.0 mph SSW9.7 kmh SSW 11.0 mph17.7 kmh 24.19 in819.2 mb 0.00 in0.0 mm 0.00 in0.0 mm 0.00 in0.0 mm
05:50 PM 63.0°F17.2°C 45.5°F7.5°C 53% 3.0 mph S4.8 kmh S 9.0 mph14.5 kmh 24.19 in819.2 mb 0.00 in0.0 mm 0.00 in0.0 mm 0.00 in0.0 mm
05:45 PM 63.2°F17.3°C 45.2°F7.3°C 52% 5.0 mph SSE8.0 kmh SSE 9.0 mph14.5 kmh 24.19 in819.2 mb 0.00 in0.0 mm 0.00 in0.0 mm 0.00 in0.0 mm
05:40 PM 63.4°F17.4°C 45.4°F7.4°C 52% 5.0 mph S8.0 kmh S 10.0 mph16.1 kmh 24.19 in819.2 mb 0.00 in0.0 mm 0.00 in0.0 mm 0.00 in0.0 mm
05:35 PM 63.3°F17.4°C 46.3°F7.9°C 54% 7.0 mph SE11.3 kmh SE 9.0 mph14.5 kmh 24.19 in819.2 mb 0.00 in0.0 mm 0.00 in0.0 mm 0.00 in0.0 mm
05:30 PM 63.1°F17.3°C 45.1°F7.3°C 52% 7.0 mph S11.3 kmh S 11.0 mph17.7 kmh 24.19 in819.2 mb 0.00 in0.0 mm 0.00 in0.0 mm 0.00 in0.0 mm
05:25 PM 63.5°F17.5°C 47.0°F8.3°C 55% 7.0 mph SSE11.3 kmh SSE 10.0 mph16.1 kmh 24.19 in819.2 mb 0.00 in0.0 mm 0.00 in0.0 mm 0.00 in0.0 mm
05:20 PM 63.3°F17.4°C 47.3°F8.5°C 56% 4.0 mph S6.4 kmh S 11.0 mph17.7 kmh 24.19 in819.2 mb 0.00 in0.0 mm 0.00 in0.0 mm 0.00 in0.0 mm
05:15 PM 63.5°F17.5°C 46.5°F8.1°C 54% 6.0 mph SSE9.7 kmh SSE 12.0 mph19.3 kmh 24.18 in818.8 mb 0.00 in0.0 mm 0.00 in0.0 mm 0.00 in0.0 mm
05:10 PM 63.8°F17.7°C 46.3°F7.9°C 53% 10.0 mph SSW16.1 kmh SSW 12.0 mph19.3 kmh 24.18 in818.8 mb 0.00 in0.0 mm 0.00 in0.0 mm 0.00 in0.0 mm
05:05 PM 63.7°F17.6°C 46.2°F7.9°C 53% 6.0 mph S9.7 kmh S 11.0 mph17.7 kmh 24.18 in818.8 mb 0.00 in0.0 mm 0.00 in0.0 mm 0.00 in0.0 mm
05:00 PM 63.9°F17.7°C 45.9°F7.7°C 52% 4.0 mph S6.4 kmh S 11.0 mph17.7 kmh 24.19 in819.2 mb 0.00 in0.0 mm 0.00 in0.0 mm 0.00 in0.0 mm
04:55 PM 63.8°F17.7°C 45.8°F7.7°C 52% 6.0 mph SW9.7 kmh SW 11.0 mph17.7 kmh 24.19 in819.2 mb 0.00 in0.0 mm 0.00 in0.0 mm 0.00 in0.0 mm
04:50 PM 63.7°F17.6°C 44.7°F7.1°C 50% 12.0 mph S19.3 kmh S 14.0 mph22.5 kmh 24.19 in819.2 mb 0.00 in0.0 mm 0.00 in0.0 mm 0.00 in0.0 mm
04:45 PM 64.4°F18.0°C 44.8°F7.1°C 49% 10.0 mph SSE16.1 kmh SSE 11.0 mph17.7 kmh 24.19 in819.2 mb 0.00 in0.0 mm 0.00 in0.0 mm 0.00 in0.0 mm
04:40 PM 64.4°F18.0°C 44.8°F7.1°C 49% 8.0 mph SE12.9 kmh SE 11.0 mph17.7 kmh 24.19 in819.2 mb 0.00 in0.0 mm 0.00 in0.0 mm 0.00 in0.0 mm
04:35 PM 64.5°F18.1°C 44.9°F7.2°C 49% 7.0 mph SSW11.3 kmh SSW 10.0 mph16.1 kmh 24.19 in819.2 mb 0.00 in0.0 mm 0.00 in0.0 mm 0.00 in0.0 mm
04:30 PM 64.2°F17.9°C 44.6°F7.0°C 49% 9.0 mph SW14.5 kmh SW 12.0 mph19.3 kmh 24.22 in820.2 mb 0.00 in0.0 mm 0.00 in0.0 mm 0.00 in0.0 mm
04:25 PM 63.7°F17.6°C 43.0°F6.1°C 47% 10.0 mph SSW16.1 kmh SSW 12.0 mph19.3 kmh 24.22 in820.2 mb 0.00 in0.0 mm 0.00 in0.0 mm 0.00 in0.0 mm
04:20 PM 63.7°F17.6°C 43.0°F6.1°C 47% 11.0 mph SSW17.7 kmh SSW 13.0 mph20.9 kmh 24.22 in820.2 mb 0.00 in0.0 mm 0.00 in0.0 mm 0.00 in0.0 mm
04:15 PM 63.8°F17.7°C 42.0°F5.6°C 45% 9.0 mph S14.5 kmh S 13.0 mph20.9 kmh 24.26 in821.5 mb 0.00 in0.0 mm 0.00 in0.0 mm 0.00 in0.0 mm
04:10 PM 64.0°F17.8°C 41.0°F5.0°C 43% 11.0 mph S17.7 kmh S 13.0 mph20.9 kmh 24.22 in820.2 mb 0.00 in0.0 mm 0.00 in0.0 mm 0.00 in0.0 mm
04:05 PM 64.6°F18.1°C 43.3°F6.3°C 46% 11.0 mph S17.7 kmh S 11.0 mph17.7 kmh 24.34 in824.2 mb 0.00 in0.0 mm 0.00 in0.0 mm 0.00 in0.0 mm
04:00 PM 64.0°F17.8°C 43.3°F6.3°C 47% 6.0 mph SW9.7 kmh SW 10.0 mph16.1 kmh 24.32 in823.6 mb 0.00 in0.0 mm 0.00 in0.0 mm 0.00 in0.0 mm
03:55 PM 63.9°F17.7°C 41.5°F5.3°C 44% 10.0 mph SSW16.1 kmh SSW 13.0 mph20.9 kmh 24.32 in823.6 mb 0.00 in0.0 mm 0.00 in0.0 mm 0.00 in0.0 mm
03:50 PM 63.9°F17.7°C 40.9°F4.9°C 43% 10.0 mph SSW16.1 kmh SSW 12.0 mph19.3 kmh 24.32 in823.6 mb 0.00 in0.0 mm 0.00 in0.0 mm 0.00 in0.0 mm
03:45 PM 63.9°F17.7°C 42.1°F5.6°C 45% 9.0 mph S14.5 kmh S 14.0 mph22.5 kmh 24.32 in823.6 mb 0.00 in0.0 mm 0.00 in0.0 mm 0.00 in0.0 mm
03:40 PM 64.2°F17.9°C 41.2°F5.1°C 43% 9.0 mph S14.5 kmh S 12.0 mph19.3 kmh 24.32 in823.6 mb 0.00 in0.0 mm 0.00 in0.0 mm 0.00 in0.0 mm
03:35 PM 64.3°F17.9°C 40.0°F4.4°C 41% 5.0 mph S8.0 kmh S 14.0 mph22.5 kmh 24.32 in823.6 mb 0.00 in0.0 mm 0.00 in0.0 mm 0.00 in0.0 mm
03:30 PM 64.4°F18.0°C 43.7°F6.5°C 47% 11.0 mph S17.7 kmh S 11.0 mph17.7 kmh 24.32 in823.6 mb 0.00 in0.0 mm 0.00 in0.0 mm 0.00 in0.0 mm
03:25 PM 63.6°F17.6°C 44.0°F6.7°C 49% 6.0 mph SW9.7 kmh SW 11.0 mph17.7 kmh 24.32 in823.6 mb 0.00 in0.0 mm 0.00 in0.0 mm 0.00 in0.0 mm
03:20 PM 63.1°F17.3°C 44.6°F7.0°C 51% 7.0 mph S11.3 kmh S 12.0 mph19.3 kmh 24.32 in823.6 mb 0.00 in0.0 mm 0.00 in0.0 mm 0.00 in0.0 mm
03:15 PM 63.4°F17.4°C 44.9°F7.2°C 51% 10.0 mph SW16.1 kmh SW 11.0 mph17.7 kmh 24.32 in823.6 mb 0.00 in0.0 mm 0.00 in0.0 mm 0.00 in0.0 mm
03:10 PM 63.1°F17.3°C 46.6°F8.1°C 55% 7.0 mph S11.3 kmh S 13.0 mph20.9 kmh 24.32 in823.6 mb 0.00 in0.0 mm 0.00 in0.0 mm 0.00 in0.0 mm
03:05 PM 62.9°F17.2°C 47.4°F8.6°C 57% 9.0 mph S14.5 kmh S 14.0 mph22.5 kmh 24.32 in823.6 mb 0.00 in0.0 mm 0.00 in0.0 mm 0.00 in0.0 mm
03:00 PM 62.6°F17.0°C 48.5°F9.2°C 60% 10.0 mph SSW16.1 kmh SSW 12.0 mph19.3 kmh 24.32 in823.6 mb 0.00 in0.0 mm 0.00 in0.0 mm 0.00 in0.0 mm
02:55 PM 62.7°F17.1°C 49.4°F9.7°C 62% 7.0 mph SSW11.3 kmh SSW 12.0 mph19.3 kmh 24.32 in823.6 mb 0.00 in0.0 mm 0.00 in0.0 mm 0.00 in0.0 mm
02:50 PM 62.6°F17.0°C 50.2°F10.1°C 64% 5.0 mph S8.0 kmh S 12.0 mph19.3 kmh 24.32 in823.6 mb 0.00 in0.0 mm 0.00 in0.0 mm 0.00 in0.0 mm
02:45 PM 62.5°F16.9°C 50.9°F10.5°C 66% 5.0 mph S8.0 kmh S 13.0 mph20.9 kmh 24.32 in823.6 mb 0.00 in0.0 mm 0.00 in0.0 mm 0.00 in0.0 mm
02:40 PM 62.4°F16.9°C 52.0°F11.1°C 69% 7.0 mph SSW11.3 kmh SSW 13.0 mph20.9 kmh 24.32 in823.6 mb 0.00 in0.0 mm 0.00 in0.0 mm 0.00 in0.0 mm
02:35 PM 62.3°F16.8°C 51.1°F10.6°C 67% 9.0 mph S14.5 kmh S 13.0 mph20.9 kmh 24.32 in823.6 mb 0.00 in0.0 mm 0.00 in0.0 mm 0.00 in0.0 mm
02:30 PM 62.8°F17.1°C 52.4°F11.3°C 69% 11.0 mph SW17.7 kmh SW 14.0 mph22.5 kmh 24.32 in823.6 mb 0.00 in0.0 mm 0.00 in0.0 mm 0.00 in0.0 mm
02:25 PM 62.5°F16.9°C 51.7°F10.9°C 68% 5.0 mph SSW8.0 kmh SSW 13.0 mph20.9 kmh 24.32 in823.6 mb 0.00 in0.0 mm 0.00 in0.0 mm 0.00 in0.0 mm
02:20 PM 62.6°F17.0°C 53.0°F11.7°C 71% 5.0 mph S8.0 kmh S 11.0 mph17.7 kmh 24.32 in823.6 mb 0.00 in0.0 mm 0.00 in0.0 mm 0.00 in0.0 mm
02:15 PM 62.8°F17.1°C 53.6°F12.0°C 72% 7.0 mph S11.3 kmh S 13.0 mph20.9 kmh 24.32 in823.6 mb 0.00 in0.0 mm 0.00 in0.0 mm 0.00 in0.0 mm
02:10 PM 62.8°F17.1°C 53.6°F12.0°C 72% 9.0 mph S14.5 kmh S 12.0 mph19.3 kmh 24.32 in823.6 mb 0.00 in0.0 mm 0.00 in0.0 mm 0.00 in0.0 mm
02:05 PM 62.9°F17.2°C 54.1°F12.3°C 73% 11.0 mph S17.7 kmh S 11.0 mph17.7 kmh 24.32 in823.6 mb 0.00 in0.0 mm 0.00 in0.0 mm 0.00 in0.0 mm
02:00 PM 62.6°F17.0°C 53.4°F11.9°C 72% 7.0 mph S11.3 kmh S 12.0 mph19.3 kmh 24.32 in823.6 mb 0.00 in0.0 mm 0.00 in0.0 mm 0.00 in0.0 mm
01:55 PM 62.9°F17.2°C 54.1°F12.3°C 73% 9.0 mph S14.5 kmh S 12.0 mph19.3 kmh 24.32 in823.6 mb 0.00 in0.0 mm 0.00 in0.0 mm 0.00 in0.0 mm
01:50 PM 62.6°F17.0°C 54.1°F12.3°C 74% 10.0 mph S16.1 kmh S 13.0 mph20.9 kmh 24.32 in823.6 mb 0.00 in0.0 mm 0.00 in0.0 mm 0.00 in0.0 mm
01:45 PM 62.7°F17.1°C 54.2°F12.3°C 74% 10.0 mph SW16.1 kmh SW 11.0 mph17.7 kmh 24.32 in823.6 mb 0.00 in0.0 mm 0.00 in0.0 mm 0.00 in0.0 mm
01:40 PM 62.5°F16.9°C 54.0°F12.2°C 74% 5.0 mph S8.0 kmh S 13.0 mph20.9 kmh 24.32 in823.6 mb 0.00 in0.0 mm 0.00 in0.0 mm 0.00 in0.0 mm
01:35 PM 62.5°F16.9°C 54.4°F12.4°C 75% 7.0 mph SSW11.3 kmh SSW 13.0 mph20.9 kmh 24.32 in823.6 mb 0.00 in0.0 mm 0.00 in0.0 mm 0.00 in0.0 mm
01:30 PM 62.8°F17.1°C 54.3°F12.4°C 74% 10.0 mph SSW16.1 kmh SSW 13.0 mph20.9 kmh 24.32 in823.6 mb 0.00 in0.0 mm 0.00 in0.0 mm 0.00 in0.0 mm
01:25 PM 62.8°F17.1°C 54.0°F12.2°C 73% 9.0 mph S14.5 kmh S 13.0 mph20.9 kmh 24.32 in823.6 mb 0.00 in0.0 mm 0.00 in0.0 mm 0.00 in0.0 mm
01:20 PM 63.1°F17.3°C 53.5°F11.9°C 71% 11.0 mph SSW17.7 kmh SSW 13.0 mph20.9 kmh 24.32 in823.6 mb 0.00 in0.0 mm 0.00 in0.0 mm 0.00 in0.0 mm
01:15 PM 63.1°F17.3°C 53.9°F12.2°C 72% 9.0 mph SSW14.5 kmh SSW 12.0 mph19.3 kmh 24.32 in823.6 mb 0.00 in0.0 mm 0.00 in0.0 mm 0.00 in0.0 mm
01:10 PM 63.0°F17.2°C 53.8°F12.1°C 72% 6.0 mph SSW9.7 kmh SSW 12.0 mph19.3 kmh 24.32 in823.6 mb 0.00 in0.0 mm 0.00 in0.0 mm 0.00 in0.0 mm
01:05 PM 63.0°F17.2°C 53.4°F11.9°C 71% 11.0 mph SSW17.7 kmh SSW 12.0 mph19.3 kmh 24.32 in823.6 mb 0.00 in0.0 mm 0.00 in0.0 mm 0.00 in0.0 mm
01:00 PM 63.0°F17.2°C 53.0°F11.7°C 70% 9.0 mph SW14.5 kmh SW 12.0 mph19.3 kmh 24.32 in823.6 mb 0.00 in0.0 mm 0.00 in0.0 mm 0.00 in0.0 mm
12:55 PM 63.1°F17.3°C 53.5°F11.9°C 71% 10.0 mph S16.1 kmh S 13.0 mph20.9 kmh 24.32 in823.6 mb 0.00 in0.0 mm 0.00 in0.0 mm 0.00 in0.0 mm
12:50 PM 63.4°F17.4°C 54.2°F12.3°C 72% 10.0 mph S16.1 kmh S 13.0 mph20.9 kmh 24.32 in823.6 mb 0.00 in0.0 mm 0.00 in0.0 mm 0.00 in0.0 mm
12:45 PM 63.2°F17.3°C 54.3°F12.4°C 73% 11.0 mph SW17.7 kmh SW 12.0 mph19.3 kmh 24.32 in823.6 mb 0.00 in0.0 mm 0.00 in0.0 mm 0.00 in0.0 mm
12:40 PM 63.0°F17.2°C 53.8°F12.1°C 72% 10.0 mph S16.1 kmh S 14.0 mph22.5 kmh 24.32 in823.6 mb 0.00 in0.0 mm 0.00 in0.0 mm 0.00 in0.0 mm
12:35 PM 62.9°F17.2°C 54.4°F12.4°C 74% 9.0 mph S14.5 kmh S 14.0 mph22.5 kmh 24.32 in823.6 mb 0.00 in0.0 mm 0.00 in0.0 mm 0.00 in0.0 mm
12:30 PM 62.6°F17.0°C 54.9°F12.7°C 76% 12.0 mph SSW19.3 kmh SSW 15.0 mph24.1 kmh 24.32 in823.6 mb 0.00 in0.0 mm 0.00 in0.0 mm 0.00 in0.0 mm
12:25 PM 62.4°F16.9°C 55.0°F12.8°C 77% 13.0 mph S20.9 kmh S 14.0 mph22.5 kmh 24.32 in823.6 mb 0.00 in0.0 mm 0.00 in0.0 mm 0.00 in0.0 mm
12:20 PM 62.4°F16.9°C 55.7°F13.2°C 79% 7.0 mph SSW11.3 kmh SSW 15.0 mph24.1 kmh 24.32 in823.6 mb 0.00 in0.0 mm 0.00 in0.0 mm 0.00 in0.0 mm
12:15 PM 62.4°F16.9°C 56.1°F13.4°C 80% 7.0 mph S11.3 kmh S 14.0 mph22.5 kmh 24.32 in823.6 mb 0.00 in0.0 mm 0.00 in0.0 mm 0.00 in0.0 mm
12:10 PM 61.7°F16.5°C 56.1°F13.4°C 82% 11.0 mph S17.7 kmh S 15.0 mph24.1 kmh 24.32 in823.6 mb 0.00 in0.0 mm 0.00 in0.0 mm 0.00 in0.0 mm
12:05 PM 61.4°F16.3°C 55.8°F13.2°C 82% 11.0 mph S17.7 kmh S 16.0 mph25.7 kmh 24.32 in823.6 mb 0.00 in0.0 mm 0.00 in0.0 mm 0.00 in0.0 mm
12:00 PM 62.0°F16.7°C 56.4°F13.6°C 82% 13.0 mph S20.9 kmh S 16.0 mph25.7 kmh 24.32 in823.6 mb 0.00 in0.0 mm 0.00 in0.0 mm 0.00 in0.0 mm
11:55 AM 62.8°F17.1°C 57.5°F14.2°C 83% 13.0 mph SSW20.9 kmh SSW 15.0 mph24.1 kmh 24.32 in823.6 mb 0.00 in0.0 mm 0.00 in0.0 mm 0.00 in0.0 mm
11:50 AM 61.9°F16.6°C 56.6°F13.7°C 83% 9.0 mph SSW14.5 kmh SSW 17.0 mph27.4 kmh 24.33 in823.9 mb 0.00 in0.0 mm 0.00 in0.0 mm 0.00 in0.0 mm
11:45 AM 61.9°F16.6°C 57.0°F13.9°C 84% 15.0 mph S24.1 kmh S 16.0 mph25.7 kmh 24.32 in823.6 mb 0.00 in0.0 mm 0.00 in0.0 mm 0.00 in0.0 mm
11:40 AM 61.5°F16.4°C 56.2°F13.4°C 83% 15.0 mph S24.1 kmh S 17.0 mph27.4 kmh 24.33 in823.9 mb 0.00 in0.0 mm 0.00 in0.0 mm 0.00 in0.0 mm
11:35 AM 61.5°F16.4°C 56.2°F13.4°C 83% 13.0 mph S20.9 kmh S 17.0 mph27.4 kmh 24.30 in822.9 mb 0.00 in0.0 mm 0.00 in0.0 mm 0.00 in0.0 mm
11:30 AM 60.9°F16.1°C 56.0°F13.3°C 84% 14.0 mph S22.5 kmh S 18.0 mph29.0 kmh 24.31 in823.2 mb 0.00 in0.0 mm 0.00 in0.0 mm 0.00 in0.0 mm
11:25 AM 61.7°F16.5°C 56.4°F13.6°C 83% 14.0 mph SSW22.5 kmh SSW 19.0 mph30.6 kmh 24.30 in822.9 mb 0.00 in0.0 mm 0.00 in0.0 mm 0.00 in0.0 mm
11:20 AM 62.5°F16.9°C 56.5°F13.6°C 81% 11.0 mph SSW17.7 kmh SSW 15.0 mph24.1 kmh 24.31 in823.2 mb 0.00 in0.0 mm 0.00 in0.0 mm 0.00 in0.0 mm
11:15 AM 62.3°F16.8°C 56.3°F13.5°C 81% 9.0 mph SSW14.5 kmh SSW 17.0 mph27.4 kmh 24.29 in822.6 mb 0.00 in0.0 mm 0.00 in0.0 mm 0.00 in0.0 mm
11:10 AM 62.7°F17.1°C 56.7°F13.7°C 81% 9.0 mph S14.5 kmh S 15.0 mph24.1 kmh 24.27 in821.9 mb 0.00 in0.0 mm 0.00 in0.0 mm 0.00 in0.0 mm
11:05 AM 62.5°F16.9°C 56.5°F13.6°C 81% 13.0 mph SSE20.9 kmh SSE 17.0 mph27.4 kmh 24.29 in822.6 mb 0.00 in0.0 mm 0.00 in0.0 mm 0.00 in0.0 mm
11:00 AM 62.8°F17.1°C 56.8°F13.8°C 81% 13.0 mph S20.9 kmh S 17.0 mph27.4 kmh 24.29 in822.6 mb 0.00 in0.0 mm 0.00 in0.0 mm 0.00 in0.0 mm
10:55 AM 62.7°F17.1°C 57.1°F13.9°C 82% 6.0 mph SSE9.7 kmh SSE 14.0 mph22.5 kmh 24.30 in822.9 mb 0.00 in0.0 mm 0.00 in0.0 mm 0.00 in0.0 mm
10:50 AM 62.6°F17.0°C 56.6°F13.7°C 81% 12.0 mph S19.3 kmh S 15.0 mph24.1 kmh 24.30 in822.9 mb 0.00 in0.0 mm 0.00 in0.0 mm 0.00 in0.0 mm
10:45 AM 62.1°F16.7°C 56.1°F13.4°C 81% 10.0 mph SSW16.1 kmh SSW 15.0 mph24.1 kmh 24.30 in822.9 mb 0.00 in0.0 mm 0.00 in0.0 mm 0.00 in0.0 mm
10:40 AM 62.6°F17.0°C 56.6°F13.7°C 81% 11.0 mph S17.7 kmh S 16.0 mph25.7 kmh 24.30 in822.9 mb 0.00 in0.0 mm 0.00 in0.0 mm 0.00 in0.0 mm
10:35 AM 62.7°F17.1°C 56.4°F13.6°C 80% 11.0 mph S17.7 kmh S 15.0 mph24.1 kmh 24.30 in822.9 mb 0.00 in0.0 mm 0.00 in0.0 mm 0.00 in0.0 mm
10:30 AM 62.4°F16.9°C 56.1°F13.4°C 80% 10.0 mph S16.1 kmh S 13.0 mph20.9 kmh 24.30 in822.9 mb 0.00 in0.0 mm 0.00 in0.0 mm 0.00 in0.0 mm
10:25 AM 62.6°F17.0°C 56.3°F13.5°C 80% 10.0 mph SSE16.1 kmh SSE 13.0 mph20.9 kmh 24.30 in822.9 mb 0.00 in0.0 mm 0.00 in0.0 mm 0.00 in0.0 mm
10:20 AM 62.6°F17.0°C 55.9°F13.3°C 79% 9.0 mph SSW14.5 kmh SSW 13.0 mph20.9 kmh 24.30 in822.9 mb 0.00 in0.0 mm 0.00 in0.0 mm 0.00 in0.0 mm
10:15 AM 62.8°F17.1°C 55.8°F13.2°C 78% 6.0 mph SSW9.7 kmh SSW 12.0 mph19.3 kmh 24.30 in822.9 mb 0.00 in0.0 mm 0.00 in0.0 mm 0.00 in0.0 mm
10:10 AM 63.0°F17.2°C 55.6°F13.1°C 77% 12.0 mph S19.3 kmh S 13.0 mph20.9 kmh 24.30 in822.9 mb 0.00 in0.0 mm 0.00 in0.0 mm 0.00 in0.0 mm
10:05 AM 63.1°F17.3°C 55.7°F13.2°C 77% 6.0 mph S9.7 kmh S 11.0 mph17.7 kmh 24.30 in822.9 mb 0.00 in0.0 mm 0.00 in0.0 mm 0.00 in0.0 mm
10:00 AM 62.9°F17.2°C 55.5°F13.1°C 77% 9.0 mph SSE14.5 kmh SSE 12.0 mph19.3 kmh 24.30 in822.9 mb 0.00 in0.0 mm 0.00 in0.0 mm 0.00 in0.0 mm
09:55 AM 62.6°F17.0°C 55.2°F12.9°C 77% 7.0 mph S11.3 kmh S 11.0 mph17.7 kmh 24.30 in822.9 mb 0.00 in0.0 mm 0.00 in0.0 mm 0.00 in0.0 mm
09:50 AM 62.6°F17.0°C 55.2°F12.9°C 77% 3.0 mph S4.8 kmh S 11.0 mph17.7 kmh 24.30 in822.9 mb 0.00 in0.0 mm 0.00 in0.0 mm 0.00 in0.0 mm
09:45 AM 62.8°F17.1°C 54.7°F12.6°C 75% 9.0 mph S14.5 kmh S 10.0 mph16.1 kmh 24.30 in822.9 mb 0.00 in0.0 mm 0.00 in0.0 mm 0.00 in0.0 mm
09:40 AM 63.0°F17.2°C 55.3°F12.9°C 76% 6.0 mph S9.7 kmh S 11.0 mph17.7 kmh 24.30 in822.9 mb 0.00 in0.0 mm 0.00 in0.0 mm 0.00 in0.0 mm
09:35 AM 62.9°F17.2°C 55.5°F13.1°C 77% 5.0 mph S8.0 kmh S 9.0 mph14.5 kmh 24.30 in822.9 mb 0.00 in0.0 mm 0.00 in0.0 mm 0.00 in0.0 mm
09:30 AM 62.9°F17.2°C 55.2°F12.9°C 76% 7.0 mph S11.3 kmh S 11.0 mph17.7 kmh 24.30 in822.9 mb 0.00 in0.0 mm 0.00 in0.0 mm 0.00 in0.0 mm
09:25 AM 63.3°F17.4°C 54.8°F12.7°C 74% 5.0 mph SSE8.0 kmh SSE 10.0 mph16.1 kmh 24.30 in822.9 mb 0.00 in0.0 mm 0.00 in0.0 mm 0.00 in0.0 mm
09:20 AM 63.0°F17.2°C 55.3°F12.9°C 76% 2.0 mph SSW3.2 kmh SSW 10.0 mph16.1 kmh 24.30 in822.9 mb 0.00 in0.0 mm 0.00 in0.0 mm 0.00 in0.0 mm
09:15 AM 62.5°F16.9°C 54.8°F12.7°C 76% 5.0 mph S8.0 kmh S 10.0 mph16.1 kmh 24.30 in822.9 mb 0.00 in0.0 mm 0.00 in0.0 mm 0.00 in0.0 mm
09:10 AM 62.1°F16.7°C 54.7°F12.6°C 77% 6.0 mph SSW9.7 kmh SSW 10.0 mph16.1 kmh 24.30 in822.9 mb 0.00 in0.0 mm 0.00 in0.0 mm 0.00 in0.0 mm
09:05 AM 62.1°F16.7°C 54.4°F12.4°C 76% 8.0 mph SSE12.9 kmh SSE 11.0 mph17.7 kmh 24.30 in822.9 mb 0.00 in0.0 mm 0.00 in0.0 mm 0.00 in0.0 mm
09:00 AM 62.2°F16.8°C 54.5°F12.5°C 76% 10.0 mph SE16.1 kmh SE 11.0 mph17.7 kmh 24.30 in822.9 mb 0.00 in0.0 mm 0.00 in0.0 mm 0.00 in0.0 mm
08:55 AM 61.9°F16.6°C 54.2°F12.3°C 76% 6.0 mph S9.7 kmh S 11.0 mph17.7 kmh 24.30 in822.9 mb 0.00 in0.0 mm 0.00 in0.0 mm 0.00 in0.0 mm
08:50 AM 61.3°F16.3°C 54.0°F12.2°C 77% 5.0 mph S8.0 kmh S 12.0 mph19.3 kmh 24.30 in822.9 mb 0.00 in0.0 mm 0.00 in0.0 mm 0.00 in0.0 mm
08:45 AM 61.2°F16.2°C 53.9°F12.2°C 77% 6.0 mph SSE9.7 kmh SSE 11.0 mph17.7 kmh 24.30 in822.9 mb 0.00 in0.0 mm 0.00 in0.0 mm 0.00 in0.0 mm
08:40 AM 61.0°F16.1°C 53.7°F12.1°C 77% 4.0 mph SSE6.4 kmh SSE 12.0 mph19.3 kmh 24.30 in822.9 mb 0.00 in0.0 mm 0.00 in0.0 mm 0.00 in0.0 mm
08:35 AM 60.9°F16.1°C 53.2°F11.8°C 76% 11.0 mph SE17.7 kmh SE 12.0 mph19.3 kmh 24.30 in822.9 mb 0.00 in0.0 mm 0.00 in0.0 mm 0.00 in0.0 mm
08:30 AM 61.0°F16.1°C 53.7°F12.1°C 77% 8.0 mph SE12.9 kmh SE 12.0 mph19.3 kmh 24.30 in822.9 mb 0.00 in0.0 mm 0.00 in0.0 mm 0.00 in0.0 mm
08:25 AM 60.8°F16.0°C 53.5°F11.9°C 77% 7.0 mph SE11.3 kmh SE 13.0 mph20.9 kmh 24.30 in822.9 mb 0.00 in0.0 mm 0.00 in0.0 mm 0.00 in0.0 mm
08:20 AM 60.8°F16.0°C 53.5°F11.9°C 77% 10.0 mph SSE16.1 kmh SSE 12.0 mph19.3 kmh 24.31 in823.2 mb 0.00 in0.0 mm 0.00 in0.0 mm 0.00 in0.0 mm
08:15 AM 60.7°F15.9°C 53.4°F11.9°C 77% 6.0 mph SSE9.7 kmh SSE 13.0 mph20.9 kmh 24.32 in823.6 mb 0.00 in0.0 mm 0.00 in0.0 mm 0.00 in0.0 mm
08:10 AM 60.6°F15.9°C 53.3°F11.8°C 77% 9.0 mph SE14.5 kmh SE 11.0 mph17.7 kmh 24.40 in826.3 mb 0.00 in0.0 mm 0.00 in0.0 mm 0.00 in0.0 mm
08:05 AM 60.4°F15.8°C 53.5°F11.9°C 78% 6.0 mph SSE9.7 kmh SSE 14.0 mph22.5 kmh 24.40 in826.3 mb 0.00 in0.0 mm 0.00 in0.0 mm 0.00 in0.0 mm
08:00 AM 60.3°F15.7°C 53.4°F11.9°C 78% 6.0 mph SSE9.7 kmh SSE 12.0 mph19.3 kmh 24.27 in821.9 mb 0.00 in0.0 mm 0.00 in0.0 mm 0.00 in0.0 mm
07:55 AM 59.9°F15.5°C 52.6°F11.4°C 77% 10.0 mph SSE16.1 kmh SSE 14.0 mph22.5 kmh 24.29 in822.6 mb 0.00 in0.0 mm 0.00 in0.0 mm 0.00 in0.0 mm
07:50 AM 60.0°F15.6°C 52.4°F11.3°C 76% 6.0 mph S9.7 kmh S 13.0 mph20.9 kmh 24.02 in813.4 mb 0.00 in0.0 mm 0.00 in0.0 mm 0.00 in0.0 mm
07:45 AM 59.9°F15.5°C 51.9°F11.1°C 75% 6.0 mph SSE9.7 kmh SSE 13.0 mph20.9 kmh 24.02 in813.4 mb 0.00 in0.0 mm 0.00 in0.0 mm 0.00 in0.0 mm
07:40 AM 60.1°F15.6°C 51.7°F10.9°C 74% 12.0 mph SE19.3 kmh SE 13.0 mph20.9 kmh 24.02 in813.4 mb 0.00 in0.0 mm 0.00 in0.0 mm 0.00 in0.0 mm
07:35 AM 60.3°F15.7°C 51.6°F10.9°C 73% 10.0 mph SE16.1 kmh SE 13.0 mph20.9 kmh 24.02 in813.4 mb 0.00 in0.0 mm 0.00 in0.0 mm 0.00 in0.0 mm
07:30 AM 60.4°F15.8°C 51.7°F10.9°C 73% 6.0 mph SSE9.7 kmh SSE 13.0 mph20.9 kmh 24.09 in815.8 mb 0.00 in0.0 mm 0.00 in0.0 mm 0.00 in0.0 mm
07:25 AM 60.3°F15.7°C 51.6°F10.9°C 73% 7.0 mph SSE11.3 kmh SSE 12.0 mph19.3 kmh 24.09 in815.8 mb 0.00 in0.0 mm 0.00 in0.0 mm 0.00 in0.0 mm
07:20 AM 60.2°F15.7°C 51.1°F10.6°C 72% 6.0 mph SSE9.7 kmh SSE 13.0 mph20.9 kmh 24.20 in819.5 mb 0.00 in0.0 mm 0.00 in0.0 mm 0.00 in0.0 mm
07:15 AM 60.2°F15.7°C 51.5°F10.8°C 73% 7.0 mph SSE11.3 kmh SSE 12.0 mph19.3 kmh 24.20 in819.5 mb 0.00 in0.0 mm 0.00 in0.0 mm 0.00 in0.0 mm
07:10 AM 60.1°F15.6°C 50.6°F10.3°C 71% 12.0 mph SE19.3 kmh SE 14.0 mph22.5 kmh 24.35 in824.6 mb 0.00 in0.0 mm 0.00 in0.0 mm 0.00 in0.0 mm
07:05 AM 60.2°F15.7°C 51.1°F10.6°C 72% 11.0 mph SE17.7 kmh SE 12.0 mph19.3 kmh 24.35 in824.6 mb 0.00 in0.0 mm 0.00 in0.0 mm 0.00 in0.0 mm
07:00 AM 60.0°F15.6°C 50.9°F10.5°C 72% 8.0 mph SE12.9 kmh SE 14.0 mph22.5 kmh 24.12 in816.8 mb 0.00 in0.0 mm 0.00 in0.0 mm 0.00 in0.0 mm
06:55 AM 59.9°F15.5°C 50.4°F10.2°C 71% 11.0 mph SE17.7 kmh SE 13.0 mph20.9 kmh 24.12 in816.8 mb 0.00 in0.0 mm 0.00 in0.0 mm 0.00 in0.0 mm
06:50 AM 59.9°F15.5°C 50.8°F10.4°C 72% 10.0 mph SE16.1 kmh SE 12.0 mph19.3 kmh 24.12 in816.8 mb 0.00 in0.0 mm 0.00 in0.0 mm 0.00 in0.0 mm
06:45 AM 59.7°F15.4°C 51.0°F10.6°C 73% 10.0 mph SSE16.1 kmh SSE 11.0 mph17.7 kmh 24.28 in822.2 mb 0.00 in0.0 mm 0.00 in0.0 mm 0.00 in0.0 mm
06:40 AM 59.5°F15.3°C 50.8°F10.4°C 73% 10.0 mph SE16.1 kmh SE 12.0 mph19.3 kmh 24.47 in828.6 mb 0.00 in0.0 mm 0.00 in0.0 mm 0.00 in0.0 mm
06:35 AM 59.3°F15.2°C 50.6°F10.3°C 73% 4.0 mph SE6.4 kmh SE 11.0 mph17.7 kmh 24.47 in828.6 mb 0.00 in0.0 mm 0.00 in0.0 mm 0.00 in0.0 mm
06:30 AM 59.2°F15.1°C 50.5°F10.3°C 73% 10.0 mph SE16.1 kmh SE 12.0 mph19.3 kmh 24.47 in828.6 mb 0.00 in0.0 mm 0.00 in0.0 mm 0.00 in0.0 mm
06:25 AM 59.1°F15.1°C 50.4°F10.2°C 73% 8.0 mph SE12.9 kmh SE 12.0 mph19.3 kmh 24.47 in828.6 mb 0.00 in0.0 mm 0.00 in0.0 mm 0.00 in0.0 mm
06:20 AM 58.9°F14.9°C 50.6°F10.3°C 74% 8.0 mph ESE12.9 kmh ESE 9.0 mph14.5 kmh 24.33 in823.9 mb 0.00 in0.0 mm 0.00 in0.0 mm 0.00 in0.0 mm
06:15 AM 58.7°F14.8°C 50.7°F10.4°C 75% 5.0 mph ESE8.0 kmh ESE 7.0 mph11.3 kmh 24.33 in823.9 mb 0.00 in0.0 mm 0.00 in0.0 mm 0.00 in0.0 mm
06:10 AM 58.6°F14.8°C 50.6°F10.3°C 75% 6.0 mph SE9.7 kmh SE 6.0 mph9.7 kmh 24.33 in823.9 mb 0.00 in0.0 mm 0.00 in0.0 mm 0.00 in0.0 mm
06:05 AM 58.5°F14.7°C 50.2°F10.1°C 74% 5.0 mph ESE8.0 kmh ESE 6.0 mph9.7 kmh 24.33 in823.9 mb 0.00 in0.0 mm 0.00 in0.0 mm 0.00 in0.0 mm
06:00 AM 58.4°F14.7°C 50.5°F10.3°C 75% 3.0 mph SE4.8 kmh SE 6.0 mph9.7 kmh 24.41 in826.6 mb 0.00 in0.0 mm 0.00 in0.0 mm 0.00 in0.0 mm
05:55 AM 58.1°F14.5°C 50.2°F10.1°C 75% 5.0 mph SE8.0 kmh SE 7.0 mph11.3 kmh 24.27 in821.9 mb 0.00 in0.0 mm 0.00 in0.0 mm 0.00 in0.0 mm
05:50 AM 57.8°F14.3°C 50.2°F10.1°C 76% 3.0 mph SE4.8 kmh SE 6.0 mph9.7 kmh 24.21 in819.8 mb 0.00 in0.0 mm 0.00 in0.0 mm 0.00 in0.0 mm
05:45 AM 57.6°F14.2°C 50.0°F10.0°C 76% 4.0 mph SE6.4 kmh SE 7.0 mph11.3 kmh 24.21 in819.8 mb 0.00 in0.0 mm 0.00 in0.0 mm 0.00 in0.0 mm
05:40 AM 57.2°F14.0°C 49.7°F9.8°C 76% 4.0 mph SE6.4 kmh SE 6.0 mph9.7 kmh 24.34 in824.2 mb 0.00 in0.0 mm 0.00 in0.0 mm 0.00 in0.0 mm
05:35 AM 56.8°F13.8°C 49.3°F9.6°C 76% 6.0 mph SE9.7 kmh SE 8.0 mph12.9 kmh 24.34 in824.2 mb 0.00 in0.0 mm 0.00 in0.0 mm 0.00 in0.0 mm
05:30 AM 56.6°F13.7°C 49.1°F9.5°C 76% 7.0 mph SE11.3 kmh SE 9.0 mph14.5 kmh 24.34 in824.2 mb 0.00 in0.0 mm 0.00 in0.0 mm 0.00 in0.0 mm
05:25 AM 56.2°F13.4°C 48.7°F9.3°C 76% 8.0 mph SE12.9 kmh SE 9.0 mph14.5 kmh 24.28 in822.2 mb 0.00 in0.0 mm 0.00 in0.0 mm 0.00 in0.0 mm
05:20 AM 56.0°F13.3°C 48.5°F9.2°C 76% 6.0 mph SE9.7 kmh SE 10.0 mph16.1 kmh 24.28 in822.2 mb 0.00 in0.0 mm 0.00 in0.0 mm 0.00 in0.0 mm
05:15 AM 55.8°F13.2°C 48.3°F9.1°C 76% 7.0 mph SE11.3 kmh SE 10.0 mph16.1 kmh 24.26 in821.5 mb 0.00 in0.0 mm 0.00 in0.0 mm 0.00 in0.0 mm
05:10 AM 55.7°F13.2°C 48.2°F9.0°C 76% 7.0 mph SE11.3 kmh SE 10.0 mph16.1 kmh 24.26 in821.5 mb 0.00 in0.0 mm 0.00 in0.0 mm 0.00 in0.0 mm
05:05 AM 55.6°F13.1°C 48.1°F8.9°C 76% 9.0 mph SE14.5 kmh SE 10.0 mph16.1 kmh 24.26 in821.5 mb 0.00 in0.0 mm 0.00 in0.0 mm 0.00 in0.0 mm
05:00 AM 55.4°F13.0°C 47.9°F8.8°C 76% 7.0 mph SE11.3 kmh SE 9.0 mph14.5 kmh 24.26 in821.5 mb 0.00 in0.0 mm 0.00 in0.0 mm 0.00 in0.0 mm
04:55 AM 55.3°F12.9°C 47.8°F8.8°C 76% 6.0 mph SE9.7 kmh SE 8.0 mph12.9 kmh 24.26 in821.5 mb 0.00 in0.0 mm 0.00 in0.0 mm 0.00 in0.0 mm
04:50 AM 55.2°F12.9°C 47.7°F8.7°C 76% 5.0 mph SE8.0 kmh SE 7.0 mph11.3 kmh 24.23 in820.5 mb 0.00 in0.0 mm 0.00 in0.0 mm 0.00 in0.0 mm
04:45 AM 55.1°F12.8°C 47.6°F8.7°C 76% 5.0 mph ESE8.0 kmh ESE 6.0 mph9.7 kmh 24.23 in820.5 mb 0.00 in0.0 mm 0.00 in0.0 mm 0.00 in0.0 mm
04:40 AM 55.0°F12.8°C 47.9°F8.8°C 77% 5.0 mph SE8.0 kmh SE 7.0 mph11.3 kmh 24.23 in820.5 mb 0.00 in0.0 mm 0.00 in0.0 mm 0.00 in0.0 mm
04:35 AM 54.9°F12.7°C 47.8°F8.8°C 77% 4.0 mph SE6.4 kmh SE 7.0 mph11.3 kmh 24.30 in822.9 mb 0.00 in0.0 mm 0.00 in0.0 mm 0.00 in0.0 mm
04:30 AM 54.8°F12.7°C 47.7°F8.7°C 77% 5.0 mph SE8.0 kmh SE 6.0 mph9.7 kmh 24.33 in823.9 mb 0.00 in0.0 mm 0.00 in0.0 mm 0.00 in0.0 mm
04:25 AM 54.6°F12.6°C 47.5°F8.6°C 77% 6.0 mph SE9.7 kmh SE 7.0 mph11.3 kmh 24.37 in825.3 mb 0.00 in0.0 mm 0.00 in0.0 mm 0.00 in0.0 mm
04:20 AM 54.5°F12.5°C 47.4°F8.6°C 77% 5.0 mph SE8.0 kmh SE 7.0 mph11.3 kmh 24.33 in823.9 mb 0.00 in0.0 mm 0.00 in0.0 mm 0.00 in0.0 mm
04:15 AM 54.5°F12.5°C 47.4°F8.6°C 77% 5.0 mph SE8.0 kmh SE 7.0 mph11.3 kmh 24.41 in826.6 mb 0.00 in0.0 mm 0.00 in0.0 mm 0.00 in0.0 mm
04:10 AM 54.5°F12.5°C 47.4°F8.6°C 77% 5.0 mph SE8.0 kmh SE 7.0 mph11.3 kmh 24.36 in824.9 mb 0.00 in0.0 mm 0.00 in0.0 mm 0.00 in0.0 mm
04:05 AM 54.5°F12.5°C 47.4°F8.6°C 77% 5.0 mph SE8.0 kmh SE 6.0 mph9.7 kmh 24.31 in823.2 mb 0.00 in0.0 mm 0.00 in0.0 mm 0.00 in0.0 mm
04:00 AM 54.6°F12.6°C 47.5°F8.6°C 77% 5.0 mph SE8.0 kmh SE 6.0 mph9.7 kmh 24.31 in823.2 mb 0.00 in0.0 mm 0.00 in0.0 mm 0.00 in0.0 mm
03:55 AM 54.6°F12.6°C 47.5°F8.6°C 77% 5.0 mph SE8.0 kmh SE 7.0 mph11.3 kmh 24.31 in823.2 mb 0.00 in0.0 mm 0.00 in0.0 mm 0.00 in0.0 mm
03:50 AM 54.6°F12.6°C 47.5°F8.6°C 77% 5.0 mph SE8.0 kmh SE 7.0 mph11.3 kmh 24.30 in822.9 mb 0.00 in0.0 mm 0.00 in0.0 mm 0.00 in0.0 mm
03:45 AM 54.7°F12.6°C 47.6°F8.7°C 77% 6.0 mph SE9.7 kmh SE 7.0 mph11.3 kmh 24.30 in822.9 mb 0.00 in0.0 mm 0.00 in0.0 mm 0.00 in0.0 mm
03:40 AM 54.6°F12.6°C 47.5°F8.6°C 77% 6.0 mph SE9.7 kmh SE 8.0 mph12.9 kmh 24.30 in822.9 mb 0.00 in0.0 mm 0.00 in0.0 mm 0.00 in0.0 mm
03:35 AM 54.8°F12.7°C 48.0°F8.9°C 78% 5.0 mph SE8.0 kmh SE 9.0 mph14.5 kmh 24.30 in822.9 mb 0.00 in0.0 mm 0.00 in0.0 mm 0.00 in0.0 mm
03:30 AM 54.9°F12.7°C 48.1°F8.9°C 78% 9.0 mph SE14.5 kmh SE 9.0 mph14.5 kmh 24.30 in822.9 mb 0.00 in0.0 mm 0.00 in0.0 mm 0.00 in0.0 mm
03:25 AM 54.8°F12.7°C 48.4°F9.1°C 79% 6.0 mph SE9.7 kmh SE 6.0 mph9.7 kmh 24.30 in822.9 mb 0.00 in0.0 mm 0.00 in0.0 mm 0.00 in0.0 mm
03:20 AM 54.8°F12.7°C 48.7°F9.3°C 80% 5.0 mph SE8.0 kmh SE 7.0 mph11.3 kmh 24.30 in822.9 mb 0.00 in0.0 mm 0.00 in0.0 mm 0.00 in0.0 mm
03:15 AM 54.8°F12.7°C 49.0°F9.4°C 81% 5.0 mph SE8.0 kmh SE 7.0 mph11.3 kmh 24.30 in822.9 mb 0.00 in0.0 mm 0.00 in0.0 mm 0.00 in0.0 mm
03:10 AM 54.7°F12.6°C 49.3°F9.6°C 82% 6.0 mph SE9.7 kmh SE 8.0 mph12.9 kmh 24.30 in822.9 mb 0.00 in0.0 mm 0.00 in0.0 mm 0.00 in0.0 mm
03:05 AM 54.6°F12.6°C 49.5°F9.7°C 83% 5.0 mph SE8.0 kmh SE 7.0 mph11.3 kmh 24.30 in822.9 mb 0.00 in0.0 mm 0.00 in0.0 mm 0.00 in0.0 mm
03:00 AM 54.6°F12.6°C 49.5°F9.7°C 83% 5.0 mph SE8.0 kmh SE 7.0 mph11.3 kmh 24.30 in822.9 mb 0.00 in0.0 mm 0.00 in0.0 mm 0.00 in0.0 mm
02:55 AM 54.8°F12.7°C 49.7°F9.8°C 83% 5.0 mph SE8.0 kmh SE 7.0 mph11.3 kmh 24.30 in822.9 mb 0.00 in0.0 mm 0.00 in0.0 mm 0.00 in0.0 mm
02:50 AM 54.9°F12.7°C 49.8°F9.9°C 83% 5.0 mph SE8.0 kmh SE 7.0 mph11.3 kmh 24.30 in822.9 mb 0.00 in0.0 mm 0.00 in0.0 mm 0.00 in0.0 mm
02:45 AM 54.9°F12.7°C 50.1°F10.1°C 84% 6.0 mph SE9.7 kmh SE 7.0 mph11.3 kmh 24.30 in822.9 mb 0.00 in0.0 mm 0.00 in0.0 mm 0.00 in0.0 mm
02:40 AM 55.0°F12.8°C 50.2°F10.1°C 84% 4.0 mph SE6.4 kmh SE 7.0 mph11.3 kmh 24.29 in822.6 mb 0.00 in0.0 mm 0.00 in0.0 mm 0.00 in0.0 mm
02:35 AM 55.3°F12.9°C 50.5°F10.3°C 84% 5.0 mph SE8.0 kmh SE 6.0 mph9.7 kmh 24.29 in822.6 mb 0.00 in0.0 mm 0.00 in0.0 mm 0.00 in0.0 mm
02:30 AM 55.5°F13.1°C 50.7°F10.4°C 84% 5.0 mph SE8.0 kmh SE 7.0 mph11.3 kmh 24.30 in822.9 mb 0.00 in0.0 mm 0.00 in0.0 mm 0.00 in0.0 mm
02:25 AM 55.6°F13.1°C 50.8°F10.4°C 84% 7.0 mph SE11.3 kmh SE 8.0 mph12.9 kmh 24.32 in823.6 mb 0.00 in0.0 mm 0.00 in0.0 mm 0.00 in0.0 mm
02:20 AM 55.7°F13.2°C 51.2°F10.7°C 85% 5.0 mph SE8.0 kmh SE 9.0 mph14.5 kmh 24.33 in823.9 mb 0.00 in0.0 mm 0.00 in0.0 mm 0.00 in0.0 mm
02:15 AM 55.7°F13.2°C 51.5°F10.8°C 86% 5.0 mph SE8.0 kmh SE 7.0 mph11.3 kmh 24.32 in823.6 mb 0.00 in0.0 mm 0.00 in0.0 mm 0.00 in0.0 mm
02:10 AM 55.6°F13.1°C 51.4°F10.8°C 86% 7.0 mph SE11.3 kmh SE 9.0 mph14.5 kmh 24.34 in824.2 mb 0.00 in0.0 mm 0.00 in0.0 mm 0.00 in0.0 mm
02:05 AM 55.6°F13.1°C 51.7°F10.9°C 87% 5.0 mph SE8.0 kmh SE 7.0 mph11.3 kmh 24.32 in823.6 mb 0.00 in0.0 mm 0.00 in0.0 mm 0.00 in0.0 mm
02:00 AM 55.6°F13.1°C 52.1°F11.2°C 88% 6.0 mph SE9.7 kmh SE 8.0 mph12.9 kmh 24.33 in823.9 mb 0.00 in0.0 mm 0.00 in0.0 mm 0.00 in0.0 mm
01:55 AM 55.4°F13.0°C 51.9°F11.1°C 88% 6.0 mph SE9.7 kmh SE 9.0 mph14.5 kmh 24.32 in823.6 mb 0.00 in0.0 mm 0.00 in0.0 mm 0.00 in0.0 mm
01:50 AM 55.5°F13.1°C 52.3°F11.3°C 89% 5.0 mph SE8.0 kmh SE 7.0 mph11.3 kmh 24.32 in823.6 mb 0.00 in0.0 mm 0.00 in0.0 mm 0.00 in0.0 mm
01:45 AM 55.4°F13.0°C 52.2°F11.2°C 89% 6.0 mph SE9.7 kmh SE 9.0 mph14.5 kmh 24.32 in823.6 mb 0.00 in0.0 mm 0.00 in0.0 mm 0.00 in0.0 mm
01:40 AM 55.3°F12.9°C 52.1°F11.2°C 89% 7.0 mph SE11.3 kmh SE 9.0 mph14.5 kmh 24.32 in823.6 mb 0.00 in0.0 mm 0.00 in0.0 mm 0.00 in0.0 mm
01:35 AM 55.3°F12.9°C 52.1°F11.2°C 89% 5.0 mph SE8.0 kmh SE 8.0 mph12.9 kmh 24.32 in823.6 mb 0.00 in0.0 mm 0.00 in0.0 mm 0.00 in0.0 mm
01:30 AM 55.5°F13.1°C 52.0°F11.1°C 88% 6.0 mph SE9.7 kmh SE 9.0 mph14.5 kmh 24.32 in823.6 mb 0.00 in0.0 mm 0.00 in0.0 mm 0.00 in0.0 mm
01:25 AM 55.7°F13.2°C 52.1°F11.2°C 88% 5.0 mph SE8.0 kmh SE 9.0 mph14.5 kmh 24.32 in823.6 mb 0.00 in0.0 mm 0.00 in0.0 mm 0.00 in0.0 mm
01:20 AM 55.9°F13.3°C 52.3°F11.3°C 88% 6.0 mph SE9.7 kmh SE 10.0 mph16.1 kmh 24.32 in823.6 mb 0.00 in0.0 mm 0.00 in0.0 mm 0.00 in0.0 mm
01:15 AM 55.9°F13.3°C 52.3°F11.3°C 88% 8.0 mph SE12.9 kmh SE 10.0 mph16.1 kmh 24.32 in823.6 mb 0.00 in0.0 mm 0.00 in0.0 mm 0.00 in0.0 mm
01:10 AM 56.1°F13.4°C 52.2°F11.2°C 87% 9.0 mph SE14.5 kmh SE 11.0 mph17.7 kmh 24.32 in823.6 mb 0.00 in0.0 mm 0.00 in0.0 mm 0.00 in0.0 mm
01:05 AM 55.9°F13.3°C 52.0°F11.1°C 87% 8.0 mph SE12.9 kmh SE 11.0 mph17.7 kmh 24.32 in823.6 mb 0.00 in0.0 mm 0.00 in0.0 mm 0.00 in0.0 mm
01:00 AM 55.9°F13.3°C 52.0°F11.1°C 87% 7.0 mph SE11.3 kmh SE 10.0 mph16.1 kmh 24.32 in823.6 mb 0.00 in0.0 mm 0.00 in0.0 mm 0.00 in0.0 mm
12:55 AM 55.7°F13.2°C 51.2°F10.7°C 85% 8.0 mph SE12.9 kmh SE 11.0 mph17.7 kmh 24.32 in823.6 mb 0.00 in0.0 mm 0.00 in0.0 mm 0.00 in0.0 mm
12:50 AM 55.7°F13.2°C 50.9°F10.5°C 84% 10.0 mph SE16.1 kmh SE 11.0 mph17.7 kmh 24.32 in823.6 mb 0.00 in0.0 mm 0.00 in0.0 mm 0.00 in0.0 mm
12:45 AM 55.6°F13.1°C 50.1°F10.1°C 82% 10.0 mph SE16.1 kmh SE 10.0 mph16.1 kmh 24.32 in823.6 mb 0.00 in0.0 mm 0.00 in0.0 mm 0.00 in0.0 mm
12:40 AM 55.9°F13.3°C 50.1°F10.1°C 81% 9.0 mph SE14.5 kmh SE 10.0 mph16.1 kmh 24.32 in823.6 mb 0.00 in0.0 mm 0.00 in0.0 mm 0.00 in0.0 mm
12:35 AM 56.1°F13.4°C 49.3°F9.6°C 78% 7.0 mph SE11.3 kmh SE 10.0 mph16.1 kmh 24.32 in823.6 mb 0.00 in0.0 mm 0.00 in0.0 mm 0.00 in0.0 mm
12:30 AM 56.2°F13.4°C 49.0°F9.4°C 77% 7.0 mph SE11.3 kmh SE 9.0 mph14.5 kmh 24.32 in823.6 mb 0.00 in0.0 mm 0.00 in0.0 mm 0.00 in0.0 mm
12:25 AM 56.5°F13.6°C 48.6°F9.2°C 75% 8.0 mph SSE12.9 kmh SSE 9.0 mph14.5 kmh 24.32 in823.6 mb 0.00 in0.0 mm 0.00 in0.0 mm 0.00 in0.0 mm
12:20 AM 56.8°F13.8°C 48.9°F9.4°C 75% 6.0 mph S9.7 kmh S 6.0 mph9.7 kmh 24.32 in823.6 mb 0.00 in0.0 mm 0.00 in0.0 mm 0.00 in0.0 mm
12:15 AM 57.1°F13.9°C 48.8°F9.3°C 74% 3.0 mph SW4.8 kmh SW 4.0 mph6.4 kmh 24.32 in823.6 mb 0.00 in0.0 mm 0.00 in0.0 mm 0.00 in0.0 mm
12:10 AM 57.0°F13.9°C 49.1°F9.5°C 75% 1.0 mph SW1.6 kmh SW 2.0 mph3.2 kmh 24.32 in823.6 mb 0.00 in0.0 mm 0.00 in0.0 mm 0.00 in0.0 mm
12:05 AM 56.9°F13.8°C 48.6°F9.2°C 74% Calm Calm 2.0 mph3.2 kmh 24.32 in823.6 mb 0.00 in0.0 mm 0.00 in0.0 mm 0.00 in0.0 mm
12:00 AM 57.2°F14.0°C 48.9°F9.4°C 74% 1.0 mph SW1.6 kmh SW 1.0 mph1.6 kmh 24.32 in823.6 mb 0.00 in0.0 mm 0.00 in0.0 mm 0.00 in0.0 mm